Tiempo atmosférico en la estación meteorológica de Alfaro, La Rioja (285 m.)



Fecha
DESCASC
Temp. máxima en grados centígrados (hora)
DESCASC
Temp. mínima en grados centígrados (hora)
DESCASC
Temp. media en grados centígrados
DESCASC
Racha de viento máxima en m/sg (hora)
DESCASC
Velocidad máxima media en intervalos de 10 minutos(hora)
DESCASC
Precipitaciones diarias en mm
DESCASC
Precipitaciones de 00:00 a 06:00 en mm
DESCASC
Precipitaciones de 06:00 a 12:00 en mm
DESCASC
Precipitaciones de 12:00 a 18:00 en mm
DESCASC
Precipitaciones de 18:00 a 24:00 en mm
DESCASC
31-03-2020 4.6 (23:59) 0.4 (07:50) 2.5 4.72 (02:30) 3.06 (02:20) 13.4 0.8 3.8 7.6 1.2
30-03-2020 9.3 (15:10) 3.8 (08:50) 6.6 11.39 (00:20) 7.22 (00:30) 0 0 0 0 0
29-03-2020 16.8 (14:40) 4.2 (00:00) 10.5 13.06 (17:50) 8.33 (18:20) 0 0 0 0 0
28-03-2020 19.1 (17:40) -0.7 (-00:0) 9.2 6.11 (23:20) 4.17 (23:10) 0 0 0 0 0
27-03-2020 15.2 (17:10) 1.6 (00:00) 8.4 5.28 (04:00) 3.33 (08:20) 0 0 0 0 0
26-03-2020 13.4 (14:40) 1.7 (00:00) 7.5 14.17 (15:10) 8.89 (10:20) 0 0 0 0 0
25-03-2020 14.6 (17:20) 3.6 (00:00) 9.1 7.5 (12:50) 4.72 (12:50) 0 0 0 0 0
24-03-2020 17.3 (17:20) 8.2 (00:00) 12.7 4.44 (17:50) 3.06 (23:59) 0 0 0 0 0
23-03-2020 16.9 (17:10) 7.9 (00:00) 12.4 11.11 (18:30) 6.39 (18:30) 3.2 0 0 0 3.2
22-03-2020 17.7 (16:20) 5.1 (03:00) 11.4 6.11 (16:30) 3.61 (15:00) 0 0 0 0 0
21-03-2020 17.3 (15:50) 2.9 (00:00) 10.1 9.17 (14:20) 6.11 (12:10) 0 0 0 0 0
20-03-2020 16.4 (16:20) 3.3 (00:00) 9.8 11.39 (15:50) 8.06 (15:50) 0 0 0 0 0
19-03-2020 18.3 (14:40) 3.2 (00:00) 10.7 9.17 (14:50) 6.67 (14:50) 0 0 0 0 0
18-03-2020 15.8 (16:10) 4.3 (00:00) 10.1 4.44 (14:30) 3.06 (16:10) 0.2 0 0.2 0 0
17-03-2020 11.6 (16:40) 6 (00:00) 8.8 8.89 (02:10) 6.11 (02:00) 6.2 6.2 0 0 0
16-03-2020 11 (00:00) 3.2 (00:00) 7.1 12.22 (10:40) 8.61 (10:50) 62 11.8 18.8 11.4 20
15-03-2020 19.5 (14:00) -1.4 (-00:0) 9.1 14.72 (15:50) 10.56 (16:00) 18.2 0 0 0.6 17.6
14-03-2020 18.7 (16:00) 3.2 (00:00) 11 9.17 (10:40) 6.11 (11:20) 0 0 0 0 0
13-03-2020 17.5 (14:00) 7.2 (23:59) 12.3 11.67 (14:50) 7.5 (10:50) 0 0 0 0 0
12-03-2020 21.9 (14:30) 4.9 (00:00) 13.4 10.83 (17:20) 6.39 (17:40) 0 0 0 0 0
11-03-2020 23.7 (16:00) 4.6 (00:00) 14.2 5.28 (01:00) 3.61 (06:10) 0 0 0 0 0
10-03-2020 21.2 (15:10) 2.2 (00:00) 11.7 5.83 (14:50) 3.61 (11:10) 0 0 0 0 0
09-03-2020 15 (13:50) 6.8 (00:00) 10.9 15.56 (15:10) 10.28 (14:50) 0.2 0 0.2 0 0
08-03-2020 17.9 (15:40) -2.3 (-00:0) 7.8 7.22 (23:59) 5 (23:59) 0 0 0 0 0
07-03-2020 13.7 (15:20) 2.3 (00:00) 8 14.44 (11:10) 9.44 (11:20) 0.2 0 0.2 0 0
06-03-2020 10.2 (12:30) 0.5 (00:00) 5.3 21.39 (14:40) 13.61 (14:40) 5.2 0 3.4 1.2 0.6
05-03-2020 18.7 (14:50) 4.1 (00:00) 11.4 20.83 (15:20) 12.22 (15:20) 1.2 0 1 0.2 0
04-03-2020 21 (14:40) 6.1 (00:00) 13.5 9.44 (14:20) 6.39 (14:20) 0 0 0 0 0
03-03-2020 20.1 (15:40) -0.6 (-00:0) 9.8 18.89 (16:00) 13.06 (16:00) 2.6 0 2.6 0 0
02-03-2020 15.8 (05:00) 1.5 (00:00) 8.7 23.61 (05:50) 15.28 (05:50) 4.6 3 1.6 0 0

Gráficas

Temp. máximas Temp. mínimas Temp. medias Precipitaciones Rachas de viento máximas Velocidades máximas media en intervalos de 10 minutos

Datos horarios

Fecha y hora oficial Temperatura (ºC) Velocidad del viento (km/h) Dirección del viento Racha (km/h) Dirección de racha Precipitación (mm) Presión (hPa) Tendencia (hPa) Humedad (%)
2020-03-31 23:00:00 4.5 3 Sudeste 5 Sudeste 0.6 -- -- 98
2020-03-31 22:00:00 4.3 0 Calma 6 Este 0.2 -- -- 98
2020-03-31 21:00:00 4.3 4 Este 5 Este 0.2 -- -- 97
2020-03-31 20:00:00 4.3 2 Sudeste 5 Este 0 -- -- 96
2020-03-31 19:00:00 4.4 3 Este 5 Este 0 -- -- 96
2020-03-31 18:00:00 4.2 0 Calma 3 Nordeste 0.8 -- -- 95
2020-03-31 17:00:00 4 2 Nordeste 4 Este 1.8 -- -- 94
2020-03-31 16:00:00 4 0 Calma 4 Sudeste 1.2 -- -- 93
2020-03-31 15:00:00 3.8 3 Sur 6 Sudoeste 1.4 -- -- 93
2020-03-31 14:00:00 3.3 0 Calma 3 Sur 1.4 -- -- 94
2020-03-31 13:00:00 2.6 0 Calma 4 Norte 1 -- -- 96
2020-03-31 12:00:00 2.2 0 Calma 4 Norte 1.6 -- -- 97
2020-03-31 11:00:00 1.7 0 Calma 2 Noroeste 1 -- -- 98
2020-03-31 10:00:00 1.1 0 Calma 0 Calma 0.8 -- -- 98
2020-03-31 09:00:00 0.7 0 Calma 2 Norte 0.2 -- -- 98
2020-03-31 08:00:00 0.4 0 Calma 2 Norte 0.2 -- -- 98
2020-03-31 07:00:00 0.6 0 Calma 2 Oeste 0 -- -- 96
2020-03-31 06:00:00 0.6 2 Oeste 3 Oeste 0 -- -- 94
2020-03-31 05:00:00 1.1 0 Calma 8 Nordeste 0.8 -- -- 93
2020-03-31 04:00:00 2.9 6 Nordeste 14 Noroeste 0 -- -- 81
2020-03-31 03:00:00 3.5 8 Noroeste 17 Noroeste 0 -- -- 74
2020-03-31 02:00:00 3.6 9 Noroeste 15 Noroeste 0 -- -- 73
2020-03-31 01:00:00 3.7 10 Noroeste 16 Noroeste 0 -- -- 74
2020-03-31 00:00:00 4 9 Noroeste 14 Noroeste 0 -- -- 71
2020-03-30 23:00:00 4.3 9 Noroeste 17 Norte 0 -- -- 70
2020-03-30 22:00:00 4.8 7 Norte 16 Norte 0 -- -- 65
2020-03-30 21:00:00 5.5 9 Norte 19 Norte 0 -- -- 59
2020-03-30 20:00:00 6.3 12 Norte 27 Norte 0 -- -- 49
2020-03-30 19:00:00 8 14 Norte 30 Norte 0 -- -- 46
2020-03-30 18:00:00 7.9 18 Norte 33 Norte 0 -- -- 48
2020-03-30 17:00:00 8.6 19 Norte 31 Norte 0 -- -- 46
2020-03-30 16:00:00 8.4 19 Norte 34 Norte 0 -- -- 50
2020-03-30 15:00:00 9.1 20 Norte 39 Noroeste 0 -- -- 49
2020-03-30 14:00:00 7.9 16 Norte 30 Norte 0 -- -- 51
2020-03-30 13:00:00 7.8 16 Norte 31 Norte 0 -- -- 57
2020-03-30 12:00:00 5 15 Norte 29 Nordeste 0 -- -- 67
2020-03-30 11:00:00 5.3 10 Norte 19 Norte 0 -- -- 67
2020-03-30 10:00:00 4.8 11 Norte 19 Norte 0 -- -- 66
2020-03-30 09:00:00 3.8 6 Norte 24 Norte 0 -- -- 71
2020-03-30 08:00:00 4.2 20 Noroeste 35 Noroeste 0 -- -- 65
2020-03-30 07:00:00 4.3 19 Noroeste 31 Noroeste 0 -- -- 67
2020-03-30 06:00:00 4.3 15 Noroeste 31 Noroeste 0 -- -- 73
2020-03-30 05:00:00 4.7 13 Norte 36 Norte 0 -- -- 73
2020-03-30 04:00:00 5.8 13 Noroeste 38 Norte 0 -- -- 70
2020-03-30 03:00:00 6.7 18 Noroeste 39 Noroeste 0 -- -- 70
2020-03-30 02:00:00 7.3 23 Noroeste 40 Norte 0 -- -- 72
2020-03-30 01:00:00 8.1 20 Norte 41 Norte 0 -- -- 74
2020-03-30 00:00:00 8.5 19 Noroeste 37 Noroeste 0 -- -- 77
2020-03-29 23:00:00 8.5 15 Norte 29 Noroeste 0 -- -- 77
2020-03-29 22:00:00 9.1 18 Noroeste 33 Noroeste 0 -- -- 73
2020-03-29 21:00:00 9.8 19 Noroeste 43 Norte 0 -- -- 71
2020-03-29 20:00:00 11 24 Norte 41 Norte 0 -- -- 66
2020-03-29 19:00:00 12 27 Norte 44 Norte 0 -- -- 63
2020-03-29 18:00:00 13.9 27 Norte 47 Norte 0 -- -- 58
2020-03-29 17:00:00 15.9 27 Noroeste 46 Noroeste 0 -- -- 48
2020-03-29 16:00:00 16.2 25 Norte 44 Norte 0 -- -- 43
2020-03-29 15:00:00 16.8 24 Noroeste 40 Norte 0 -- -- 39
2020-03-29 14:00:00 16.5 23 Noroeste 40 Noroeste 0 -- -- 41
2020-03-29 13:00:00 14.9 23 Noroeste 40 Noroeste 0 -- -- 45
2020-03-29 12:00:00 13.9 22 Noroeste 35 Noroeste 0 -- -- 43
2020-03-29 11:00:00 11.9 24 Noroeste 36 Noroeste 0 -- -- 51
2020-03-29 10:00:00 8.9 17 Noroeste 29 Noroeste 0 -- -- 71
2020-03-29 09:00:00 5.7 15 Noroeste 25 Noroeste 0 -- -- 84
2020-03-29 08:00:00 4.5 14 Noroeste 23 Noroeste 0 -- -- 87
2020-03-29 07:00:00 4.9 15 Noroeste 22 Noroeste 0 -- -- 86
2020-03-29 06:00:00 5.1 10 Noroeste 24 Noroeste 0 -- -- 87
2020-03-29 05:00:00 5.3 12 Noroeste 21 Noroeste 0 -- -- 88
2020-03-29 03:00:00 6.2 6 Noroeste 16 Noroeste 0 -- -- 82
2020-03-29 01:00:00 6.9 9 Oeste 15 Noroeste 0 -- -- 79
2020-03-29 00:00:00 8.2 10 Noroeste 22 Noroeste 0 -- -- 73
2020-03-28 23:00:00 8.7 14 Noroeste 19 Noroeste 0 -- -- 73
2020-03-28 22:00:00 9 9 Noroeste 13 Noroeste 0 -- -- 72
2020-03-28 21:00:00 10.2 4 Norte 13 Norte 0 -- -- 68
2020-03-28 20:00:00 12.3 5 Sudoeste 7 Sudoeste 0 -- -- 63
2020-03-28 19:00:00 18.2 3 Sudoeste 4 Sudoeste 0 -- -- 47
2020-03-28 18:00:00 19.1 3 Sudoeste 9 Norte 0 -- -- 37
2020-03-28 17:00:00 18.8 3 Noroeste 9 Norte 0 -- -- 35
2020-03-28 16:00:00 18.2 4 Norte 12 Nordeste 0 -- -- 34
2020-03-28 15:00:00 17.9 8 Nordeste 15 Nordeste 0 -- -- 38
2020-03-28 14:00:00 16.6 6 Nordeste 14 Oeste 0 -- -- 37
2020-03-28 13:00:00 15 5 Nordeste 12 Norte 0 -- -- 49
2020-03-28 12:00:00 13.4 5 Norte 14 Norte 0 -- -- 50
2020-03-28 11:00:00 11.5 10 Noroeste 15 Noroeste 0 -- -- 60
2020-03-28 10:00:00 8.8 7 Norte 12 Norte 0 -- -- 65
2020-03-28 09:00:00 6.7 6 Noroeste 12 Noroeste 0 -- -- 74
2020-03-28 08:00:00 2.2 5 Noroeste 8 Noroeste 0 -- -- 100
2020-03-28 07:00:00 -0.3 5 Oeste 6 Oeste 0 -- -- 96
2020-03-28 06:00:00 -0.6 3 Oeste 6 Oeste 0 -- -- 96
2020-03-28 05:00:00 -0.2 4 Oeste 6 Sudoeste 0 -- -- 95
2020-03-28 04:00:00 0.6 2 Sudoeste 4 Noroeste 0 -- -- 93
2020-03-28 03:00:00 1.4 0 Calma 4 Sur 0 -- -- 90
2020-03-28 02:00:00 2.4 0 Calma 6 Oeste 0 -- -- 86
2020-03-28 01:00:00 3.5 3 Norte 12 Noroeste 0 -- -- 86
2020-03-28 00:00:00 4.5 6 Noroeste 13 Noroeste 0 -- -- 83
2020-03-27 23:00:00 4.1 4 Oeste 11 Noroeste 0 -- -- 83
2020-03-27 22:00:00 4.3 3 Oeste 11 Norte 0 -- -- 83
2020-03-27 21:00:00 5.7 5 Sudoeste 7 Sur 0 -- -- 77
2020-03-27 20:00:00 9 4 Sudoeste 8 Sur 0 -- -- 64
2020-03-27 19:00:00 14.1 0 Calma 6 Sudoeste 0 -- -- 45
2020-03-27 18:00:00 14.3 2 Sudeste 9 Sur 0 -- -- 34
2020-03-27 17:00:00 15 3 Noroeste 10 Sur 0 -- -- 37
2020-03-27 16:00:00 14.4 5 Noroeste 14 Norte 0 -- -- 38
2020-03-27 15:00:00 13.8 3 Noroeste 10 Nordeste 0 -- -- 42
2020-03-27 14:00:00 13.1 3 Nordeste 10 Nordeste 0 -- -- 43
2020-03-27 13:00:00 12.2 6 Norte 13 Noroeste 0 -- -- 52
2020-03-27 12:00:00 10.9 7 Norte 17 Noroeste 0 -- -- 53
2020-03-27 11:00:00 10.2 6 Noroeste 16 Norte 0 -- -- 57
2020-03-27 10:00:00 8.7 10 Noroeste 19 Noroeste 0 -- -- 58
2020-03-27 09:00:00 6.7 10 Norte 19 Noroeste 0 -- -- 69
2020-03-27 08:00:00 4.8 8 Norte 14 Norte 0 -- -- 77
2020-03-27 07:00:00 4.2 6 Noroeste 12 Noroeste 0 -- -- 81
2020-03-27 06:00:00 4.3 6 Noroeste 10 Noroeste 0 -- -- 78
2020-03-27 05:00:00 4.3 4 Norte 17 Noroeste 0 -- -- 77
2020-03-27 04:00:00 4.1 12 Noroeste 19 Noroeste 0 -- -- 76
2020-03-27 03:00:00 3.6 10 Noroeste 16 Noroeste 0 -- -- 79
2020-03-27 02:00:00 3.1 9 Noroeste 16 Norte 0 -- -- 81
2020-03-27 01:00:00 1.7 10 Noroeste 16 Noroeste 0 -- -- 84
2020-03-27 00:00:00 1.8 10 Noroeste 15 Noroeste 0 -- -- 84
2020-03-26 23:00:00 1.8 9 Noroeste 12 Noroeste 0 -- -- 81
2020-03-26 22:00:00 3.2 7 Norte 13 Noroeste 0 -- -- 76
2020-03-26 21:00:00 4.7 9 Noroeste 15 Noroeste 0 -- -- 68
2020-03-26 20:00:00 6.5 3 Norte 31 Norte 0 -- -- 57
2020-03-26 19:00:00 9.3 20 Norte 35 Norte 0 -- -- 44
2020-03-26 18:00:00 10.9 19 Norte 36 Norte 0 -- -- 39
2020-03-26 17:00:00 12.4 21 Norte 36 Norte 0 -- -- 38
2020-03-26 16:00:00 12.6 19 Norte 51 Norte 0 -- -- 40
2020-03-26 15:00:00 13 22 Norte 45 Norte 0 -- -- 37
2020-03-26 14:00:00 13.1 25 Norte 42 Norte 0 -- -- 41
2020-03-26 13:00:00 12.5 27 Norte 48 Norte 0 -- -- 42
2020-03-26 12:00:00 10.7 22 Noroeste 41 Norte 0 -- -- 53
2020-03-26 11:00:00 10.6 26 Noroeste 47 Noroeste 0 -- -- 61
2020-03-26 10:00:00 10.2 29 Noroeste 45 Noroeste 0 -- -- 63
2020-03-26 09:00:00 8.8 25 Noroeste 43 Noroeste 0 -- -- 70
2020-03-26 08:00:00 8.1 26 Noroeste 42 Noroeste 0 -- -- 72
2020-03-26 07:00:00 7.7 22 Noroeste 35 Noroeste 0 -- -- 75
2020-03-26 06:00:00 7.4 18 Noroeste 33 Noroeste 0 -- -- 77
2020-03-26 05:00:00 6.4 15 Noroeste 28 Norte 0 -- -- 78
2020-03-26 04:00:00 6.6 13 Noroeste 21 Noroeste 0 -- -- 78
2020-03-26 03:00:00 4.8 4 Noroeste 11 Noroeste 0 -- -- 83
2020-03-26 02:00:00 3.8 2 Norte 15 Noroeste 0 -- -- 89
2020-03-26 01:00:00 3.2 10 Noroeste 21 Norte 0 -- -- 89
2020-03-26 00:00:00 3.6 10 Noroeste 16 Noroeste 0 -- -- 97
2020-03-25 23:00:00 3.7 4 Norte 6 Norte 0 -- -- 96
2020-03-25 22:00:00 4.6 2 Sur 8 Sudeste 0 -- -- 91
2020-03-25 21:00:00 6.4 2 Nordeste 17 Este 0 -- -- 88
2020-03-25 20:00:00 8.1 10 Este 21 Este 0 -- -- 82
2020-03-25 19:00:00 10.9 11 Este 22 Este 0 -- -- 76
2020-03-25 18:00:00 13.4 13 Sudeste 20 Sudeste 0 -- -- 65
2020-03-25 17:00:00 14.4 11 Sudeste 20 Sudeste 0 -- -- 62
2020-03-25 16:00:00 14.4 12 Sudeste 20 Sudeste 0 -- -- 64
2020-03-25 15:00:00 14 13 Sudeste 25 Sudeste 0 -- -- 68
2020-03-25 14:00:00 13.6 14 Sudeste 24 Este 0 -- -- 68
2020-03-25 13:00:00 11.8 17 Este 27 Este 0 -- -- 77
2020-03-25 12:00:00 10.4 14 Sudeste 20 Sudeste 0 -- -- 81
2020-03-25 11:00:00 10.7 13 Sudeste 17 Sudeste 0 -- -- 84
2020-03-25 10:00:00 9.2 9 Sur 14 Sur 0 -- -- 88
2020-03-25 09:00:00 8.9 7 Sur 11 Sudeste 0 -- -- 92
2020-03-25 08:00:00 8.3 5 Sur 9 Sudeste 0 -- -- 94
2020-03-25 07:00:00 8.1 4 Nordeste 6 Nordeste 0 -- -- 95
2020-03-25 06:00:00 7.8 0 Calma 12 Sudeste 0 -- -- 96
2020-03-25 05:00:00 7.2 8 Sudeste 12 Sudeste 0 -- -- 98
2020-03-25 04:00:00 5.3 3 Sur 7 Sur 0 -- -- 96
2020-03-25 03:00:00 5.9 0 Calma 4 Sudoeste 0 -- -- 92
2020-03-25 02:00:00 7.1 3 Sur 9 Sudeste 0 -- -- 89
2020-03-25 01:00:00 9.1 9 Sudeste 22 Sudeste 0 -- -- 87
2020-03-25 00:00:00 8.8 11 Sudeste 15 Sudeste 0 -- -- 93
2020-03-24 23:00:00 8.9 3 Noroeste 8 Norte 0 -- -- 88
2020-03-24 22:00:00 10.6 3 Nordeste 8 Norte 0 -- -- 89
2020-03-24 21:00:00 10.9 3 Sudeste 10 Sudeste 0 -- -- 84
2020-03-24 20:00:00 12.6 7 Sudeste 9 Sudeste 0 -- -- 77
2020-03-24 19:00:00 15.1 5 Sur 11 Sudeste 0 -- -- 66
2020-03-24 18:00:00 16.4 6 Sur 16 Sur 0 -- -- 57
2020-03-24 17:00:00 17.1 4 Sudoeste 12 Sudoeste 0 -- -- 55
2020-03-24 16:00:00 16.8 5 Sur 14 Sur 0 -- -- 57
2020-03-24 15:00:00 16 4 Sur 12 Sudoeste 0 -- -- 63
2020-03-24 14:00:00 14.9 3 Sur 10 Sur 0 -- -- 71
2020-03-24 13:00:00 13.7 4 Nordeste 10 Norte 0 -- -- 76
2020-03-24 12:00:00 13.2 2 Nordeste 9 Sudeste 0 -- -- 83
2020-03-24 11:00:00 11.6 5 Sudeste 9 Este 0 -- -- 88
2020-03-24 10:00:00 10.9 5 Este 10 Este 0 -- -- 92
2020-03-24 09:00:00 10.1 6 Sudeste 9 Sudeste 0 -- -- 97
2020-03-24 08:00:00 9.5 5 Nordeste 6 Nordeste 0 -- -- 98
2020-03-24 07:00:00 9.2 0 Calma 4 Sudoeste 0 -- -- 97
2020-03-24 06:00:00 9.5 0 Calma 8 Sudeste 0 -- -- 97
2020-03-24 05:00:00 9.5 3 Sudeste 9 Sudeste 0 -- -- 97
2020-03-24 04:00:00 9.4 6 Sudeste 9 Este 0 -- -- 96
2020-03-24 03:00:00 9.9 4 Sudeste 10 Sudeste 0 -- -- 96
2020-03-24 02:00:00 9.9 6 Sudeste 11 Sudeste 0 -- -- 95
2020-03-24 01:00:00 10.3 3 Sudeste 7 Sudeste 0 -- -- 95
2020-03-24 00:00:00 10.7 4 Sudeste 16 Este 0.2 -- -- 94
2020-03-23 23:00:00 10.9 10 Este 15 Este 0.2 -- -- 94
2020-03-23 22:00:00 10.8 3 Este 8 Este 0 -- -- 94
2020-03-23 21:00:00 11.1 4 Este 6 Este 0 -- -- 93
2020-03-23 20:00:00 11.4 0 Calma 8 Este 0 -- -- 91
2020-03-23 19:00:00 11.8 4 Este 40 Este 2.8 -- -- 88
2020-03-23 18:00:00 15.5 15 Sudeste 21 Sudeste 0 -- -- 67
2020-03-23 17:00:00 16.5 12 Sudoeste 27 Sudeste 0 -- -- 67
2020-03-23 16:00:00 16.3 9 Sudeste 14 Sudeste 0 -- -- 66
2020-03-23 15:00:00 15.6 5 Sudeste 15 Sudeste 0 -- -- 66
2020-03-23 14:00:00 16.1 6 Sudeste 18 Este 0 -- -- 63
2020-03-23 13:00:00 15.9 6 Sudeste 17 Sudeste 0 -- -- 64
2020-03-23 12:00:00 14.8 5 Este 12 Este 0 -- -- 67
2020-03-23 11:00:00 12.7 6 Nordeste 8 Nordeste 0 -- -- 79
2020-03-23 10:00:00 12.1 3 Norte 8 Nordeste 0 -- -- 82
2020-03-23 09:00:00 11.9 4 Nordeste 7 Nordeste 0 -- -- 86
2020-03-23 08:00:00 9.6 3 Sudoeste 4 Sudoeste 0 -- -- 97
2020-03-23 07:00:00 8.9 3 Noroeste 6 Noroeste 0 -- -- 97
2020-03-23 06:00:00 8.9 0 Calma 5 Norte 0 -- -- 97
2020-03-23 05:00:00 8.7 0 Calma 2 Oeste 0 -- -- 97
2020-03-23 04:00:00 8.6 0 Calma 5 Noroeste 0 -- -- 97
2020-03-23 03:00:00 7.9 3 Oeste 5 Sudoeste 0 -- -- 93
2020-03-23 02:00:00 8.6 2 Oeste 7 Sudoeste 0 -- -- 94
2020-03-23 01:00:00 8.9 4 Sur 11 Este 0 -- -- 92
2020-03-23 00:00:00 8.5 8 Este 11 Este 0 -- -- 94
2020-03-22 23:00:00 8.9 0 Calma 10 Sudoeste 0 -- -- 92
2020-03-22 22:00:00 7.9 3 Nordeste 6 Sudoeste 0 -- -- 94
2020-03-22 21:00:00 8.8 3 Sudoeste 6 Oeste 0 -- -- 87
2020-03-22 20:00:00 12.1 2 Sur 3 Sur 0 -- -- 72
2020-03-22 19:00:00 16.1 3 Sur 9 Sur 0 -- -- 63
2020-03-22 18:00:00 16.8 6 Sur 14 Sur 0 -- -- 52
2020-03-22 17:00:00 17.4 8 Sur 22 Sudeste 0 -- -- 53
2020-03-22 16:00:00 17.3 6 Sur 17 Sur 0 -- -- 49
2020-03-22 15:00:00 16.5 13 Sur 21 Sudeste 0 -- -- 54
2020-03-22 14:00:00 16.7 8 Sudeste 17 Sudeste 0 -- -- 56
2020-03-22 13:00:00 16.1 6 Sudeste 13 Sudeste 0 -- -- 57
2020-03-22 12:00:00 14.4 3 Sudoeste 9 Sur 0 -- -- 64
2020-03-22 11:00:00 11.1 0 Calma 4 Noroeste 0 -- -- 77
2020-03-22 10:00:00 9.2 2 Norte 7 Nordeste 0 -- -- 82
2020-03-22 09:00:00 8.4 0 Calma 5 Oeste 0 -- -- 92
2020-03-22 08:00:00 5.5 3 Sudoeste 5 Norte 0 -- -- 97
2020-03-22 07:00:00 6.5 2 Norte 7 Norte 0 -- -- 99
2020-03-22 06:00:00 6.2 0 Calma 3 Oeste 0 -- -- 99
2020-03-22 05:00:00 6 0 Calma 3 Sudoeste 0 -- -- 99
2020-03-22 04:00:00 5.2 0 Calma 3 Nordeste 0 -- -- 98
2020-03-22 03:00:00 5.1 0 Calma 7 Nordeste 0 -- -- 98
2020-03-22 02:00:00 5.7 3 Nordeste 5 Nordeste 0 -- -- 98
2020-03-22 01:00:00 5.8 3 Sudoeste 4 Oeste 0 -- -- 97
2020-03-22 00:00:00 5.4 3 Sudoeste 5 Sudoeste 0 -- -- 96
2020-03-21 23:00:00 5.9 0 Calma 5 Oeste 0 -- -- 93
2020-03-21 22:00:00 6.9 0 Calma 5 Norte 0 -- -- 89
2020-03-21 21:00:00 8.7 2 Oeste 6 Sur 0 -- -- 83
2020-03-21 20:00:00 11.4 7 Sudeste 12 Sudeste 0 -- -- 76
2020-03-21 19:00:00 14.2 8 Sudeste 19 Sudeste 0 -- -- 67
2020-03-21 18:00:00 15.7 12 Sudeste 21 Sudeste 0 -- -- 61
2020-03-21 17:00:00 17 14 Sudeste 23 Sudeste 0 -- -- 50
2020-03-21 16:00:00 17.3 15 Sudeste 26 Sudeste 0 -- -- 50
2020-03-21 15:00:00 16.5 18 Sudeste 33 Este 0 -- -- 56
2020-03-21 14:00:00 15.8 20 Sudeste 32 Sudeste 0 -- -- 58
2020-03-21 13:00:00 15.1 19 Sudeste 31 Sudeste 0 -- -- 66
2020-03-21 12:00:00 14 17 Sudeste 28 Sudeste 0 -- -- 67
2020-03-21 11:00:00 12.5 12 Sudeste 23 Sudeste 0 -- -- 73
2020-03-21 10:00:00 10.3 11 Sudeste 20 Sudeste 0 -- -- 92
2020-03-21 09:00:00 6.3 0 Calma 2 Sudoeste 0 -- -- 100
2020-03-21 08:00:00 4 0 Calma 4 Sudoeste 0 -- -- 100
2020-03-21 07:00:00 3.9 3 Norte 7 Nordeste 0 -- -- 100
2020-03-21 06:00:00 3.7 5 Nordeste 7 Norte 0 -- -- 98
2020-03-21 05:00:00 3.1 3 Sur 9 Este 0 -- -- 97
2020-03-21 04:00:00 4.5 5 Este 9 Sudeste 0 -- -- 97
2020-03-21 03:00:00 5.5 4 Este 12 Sudeste 0 -- -- 94
2020-03-21 02:00:00 6.8 0 Calma 13 Sudeste 0 -- -- 89
2020-03-21 01:00:00 8.3 8 Sudeste 15 Sur 0 -- -- 87
2020-03-21 00:00:00 9.4 8 Sudeste 22 Sudeste 0 -- -- 84
2020-03-20 23:00:00 9.6 10 Sudeste 18 Sudeste 0 -- -- 83
2020-03-20 22:00:00 9.5 0 Calma 21 Sudeste 0 -- -- 84
2020-03-20 21:00:00 11.2 13 Sudeste 19 Sudeste 0 -- -- 80
2020-03-20 20:00:00 12.1 8 Sudeste 18 Sudeste 0 -- -- 76
2020-03-20 19:00:00 13.8 13 Sudeste 31 Sudeste 0 -- -- 69
2020-03-20 18:00:00 15.5 21 Sudeste 33 Sudeste 0 -- -- 62
2020-03-20 17:00:00 15.4 21 Sudeste 38 Sudeste 0 -- -- 62
2020-03-20 16:00:00 15.9 25 Sudeste 41 Sudeste 0 -- -- 62
2020-03-20 15:00:00 15.9 27 Sudeste 40 Sudeste 0 -- -- 60
2020-03-20 14:00:00 15.1 18 Sudeste 27 Sudeste 0 -- -- 67
2020-03-20 13:00:00 12.8 14 Sur 24 Sur 0 -- -- 77
2020-03-20 12:00:00 11 19 Sudeste 32 Sudeste 0 -- -- 83
2020-03-20 11:00:00 9.6 17 Sudeste 26 Sudeste 0 -- -- 89
2020-03-20 10:00:00 8.3 13 Sur 24 Sudeste 0 -- -- 94
2020-03-20 09:00:00 7.1 5 Sudeste 10 Sudeste 0 -- -- 99
2020-03-20 08:00:00 4.6 4 Este 10 Sudeste 0 -- -- 99
2020-03-20 07:00:00 4.5 8 Sudeste 12 Sudeste 0 -- -- 99
2020-03-20 06:00:00 3.9 6 Sudeste 9 Sudeste 0 -- -- 95
2020-03-20 05:00:00 4.9 5 Sudeste 12 Sudeste 0 -- -- 93
2020-03-20 04:00:00 6.2 10 Sur 18 Sudeste 0 -- -- 91
2020-03-20 03:00:00 6.3 9 Sudeste 13 Sudeste 0 -- -- 87
2020-03-20 02:00:00 7.4 9 Sur 19 Sudeste 0 -- -- 83
2020-03-20 01:00:00 8 13 Sudeste 19 Sudeste 0 -- -- 82
2020-03-20 00:00:00 7.9 9 Sudeste 14 Sudeste 0 -- -- 89
2020-03-19 23:00:00 9.1 11 Sudeste 19 Sudeste 0 -- -- 86
2020-03-19 22:00:00 9.4 4 Sur 11 Sur 0 -- -- 87
2020-03-19 21:00:00 10.4 4 Oeste 8 Sudeste 0 -- -- 85
2020-03-19 20:00:00 12.7 8 Sudeste 19 Sudeste 0 -- -- 80
2020-03-19 19:00:00 14.2 11 Sudeste 23 Sudeste 0 -- -- 76
2020-03-19 18:00:00 15.8 14 Sudeste 25 Sudeste 0 -- -- 67
2020-03-19 17:00:00 16.7 21 Sudeste 30 Sudeste 0 -- -- 66
2020-03-19 16:00:00 17.4 22 Sudeste 31 Sudeste 0 -- -- 64
2020-03-19 15:00:00 17.6 23 Sudeste 33 Sudeste 0 -- -- 63
2020-03-19 14:00:00 17.5 17 Sudeste 27 Sudeste 0 -- -- 66
2020-03-19 13:00:00 17.3 18 Sudeste 28 Sudeste 0 -- -- 69
2020-03-19 12:00:00 14.9 10 Sudeste 18 Sudeste 0 -- -- 81
2020-03-19 11:00:00 12.3 8 Sudeste 12 Sudeste 0 -- -- 96
2020-03-19 10:00:00 9.5 3 Nordeste 6 Nordeste 0 -- -- 100
2020-03-19 09:00:00 6.6 0 Calma 3 Nordeste 0 -- -- 100
2020-03-19 08:00:00 3.8 2 Nordeste 4 Nordeste 0 -- -- 100
2020-03-19 07:00:00 3.2 0 Calma 4 Sudeste 0 -- -- 100
2020-03-19 06:00:00 3.8 0 Calma 3 Este 0 -- -- 100
2020-03-19 05:00:00 4.9 0 Calma 3 Sudeste 0 -- -- 100
2020-03-19 04:00:00 6.5 3 Este 6 Este 0 -- -- 100
2020-03-19 03:00:00 7.1 4 Este 7 Sudeste 0 -- -- 100
2020-03-19 02:00:00 7.9 3 Sudeste 9 Este 0 -- -- 99
2020-03-19 01:00:00 7.8 6 Sudeste 9 Este 0 -- -- 98
2020-03-19 00:00:00 8.3 2 Sur 8 Sudeste 0 -- -- 98
2020-03-18 23:00:00 8.6 3 Sur 5 Sur 0 -- -- 96
2020-03-18 22:00:00 9.2 2 Sudoeste 6 Sudeste 0 -- -- 95
2020-03-18 21:00:00 10.1 4 Sudeste 6 Sudeste 0 -- -- 91
2020-03-18 20:00:00 11.5 4 Sudeste 7 Sudeste 0 -- -- 86
2020-03-18 19:00:00 13.7 5 Sur 9 Sudeste 0 -- -- 81
2020-03-18 18:00:00 15 9 Sudeste 12 Sudeste 0 -- -- 76
2020-03-18 17:00:00 15.7 8 Sudeste 15 Sudeste 0 -- -- 73
2020-03-18 16:00:00 15.7 9 Sudeste 14 Sur 0 -- -- 74
2020-03-18 15:00:00 15.4 6 Sudeste 16 Este 0 -- -- 80
2020-03-18 14:00:00 13.7 0 Calma 8 Sudoeste 0 -- -- 98
2020-03-18 13:00:00 11.3 0 Calma 8 Este 0 -- -- 100
2020-03-18 12:00:00 9.5 3 Este 7 Este 0 -- -- 100
2020-03-18 11:00:00 8.7 0 Calma 5 Este 0 -- -- 100
2020-03-18 10:00:00 7.9 0 Calma 4 Este 0 -- -- 100
2020-03-18 09:00:00 7 0 Calma 5 Nordeste 0 -- -- 100
2020-03-18 08:00:00 6.8 0 Calma 2 Sudeste 0.2 -- -- 100
2020-03-18 07:00:00 6.5 0 Calma 5 Norte 0 -- -- 100
2020-03-18 06:00:00 6.1 2 Noroeste 4 Sur 0 -- -- 100
2020-03-18 05:00:00 6.3 3 Sur 5 Sur 0 -- -- 100
2020-03-18 04:00:00 6.1 0 Calma 2 Norte 0 -- -- 100
2020-03-18 03:00:00 5.5 2 Norte 4 Norte 0 -- -- 100
2020-03-18 02:00:00 4.6 2 Sudoeste 5 Sudoeste 0 -- -- 100
2020-03-18 01:00:00 5.6 0 Calma 7 Sudoeste 0 -- -- 100
2020-03-18 00:00:00 6.2 3 Sur 5 Sudoeste 0 -- -- 99
2020-03-17 23:00:00 6.1 2 Sudoeste 5 Sudoeste 0 -- -- 98
2020-03-17 22:00:00 6.6 0 Calma 6 Sudoeste 0 -- -- 97
2020-03-17 21:00:00 8 3 Sudoeste 5 Sudoeste 0 -- -- 95
2020-03-17 20:00:00 9.9 3 Norte 7 Norte 0 -- -- 95
2020-03-17 19:00:00 11.1 0 Calma 6 Noroeste 0 -- -- 94
2020-03-17 18:00:00 11.4 4 Oeste 6 Oeste 0 -- -- 93
2020-03-17 17:00:00 11.5 4 Oeste 6 Oeste 0 -- -- 93
2020-03-17 16:00:00 11.4 4 Noroeste 8 Noroeste 0 -- -- 95
2020-03-17 15:00:00 11 4 Noroeste 8 Norte 0 -- -- 96
2020-03-17 14:00:00 10.4 5 Norte 11 Noroeste 0 -- -- 96
2020-03-17 13:00:00 9.9 2 Norte 11 Norte 0 -- -- 98
2020-03-17 12:00:00 9.7 4 Norte 13 Noroeste 0 -- -- 97
2020-03-17 11:00:00 9.1 3 Norte 10 Noroeste 0 -- -- 99
2020-03-17 10:00:00 8.8 6 Noroeste 15 Noroeste 0 -- -- 99
2020-03-17 09:00:00 8.9 9 Noroeste 19 Noroeste 0 -- -- 98
2020-03-17 08:00:00 9 12 Noroeste 23 Noroeste 0 -- -- 98
2020-03-17 07:00:00 8.8 13 Noroeste 22 Noroeste 0 -- -- 99
2020-03-17 06:00:00 8.7 13 Noroeste 23 Noroeste 0 -- -- 100
2020-03-17 05:00:00 8.5 13 Noroeste 24 Noroeste 0.4 -- -- 100
2020-03-17 04:00:00 8.5 17 Noroeste 28 Noroeste 0.8 -- -- 100
2020-03-17 03:00:00 8.5 17 Noroeste 32 Noroeste 0.6 -- -- 100
2020-03-17 02:00:00 8.3 22 Noroeste 32 Noroeste 1.2 -- -- 100
2020-03-17 01:00:00 8.2 15 Noroeste 31 Noroeste 3.2 -- -- 100
2020-03-17 00:00:00 8.4 19 Noroeste 33 Noroeste 5.8 -- -- 99
2020-03-16 23:00:00 8.3 21 Noroeste 31 Noroeste 4 -- -- 99
2020-03-16 22:00:00 8.3 21 Noroeste 35 Noroeste 4.6 -- -- 98
2020-03-16 21:00:00 8 23 Oeste 38 Noroeste 1.6 -- -- 99
2020-03-16 20:00:00 7.9 25 Noroeste 38 Noroeste 1.6 -- -- 99
2020-03-16 19:00:00 7.5 21 Noroeste 37 Noroeste 2.4 -- -- 99
2020-03-16 18:00:00 7.2 18 Noroeste 34 Noroeste 0 -- -- 100
2020-03-16 17:00:00 6.7 20 Noroeste 32 Noroeste 1.6 -- -- 100
2020-03-16 16:00:00 6.3 21 Noroeste 34 Noroeste 2 -- -- 100
2020-03-16 15:00:00 5.8 20 Noroeste 36 Noroeste 2.8 -- -- 100
2020-03-16 14:00:00 5.5 24 Noroeste 36 Noroeste 2.4 -- -- 100
2020-03-16 13:00:00 5.2 22 Noroeste 34 Noroeste 2.6 -- -- 99
2020-03-16 12:00:00 4.3 23 Noroeste 39 Noroeste 3.4 -- -- 99
2020-03-16 11:00:00 3.3 26 Noroeste 44 Noroeste 3 -- -- 98
2020-03-16 10:00:00 3.5 24 Noroeste 40 Noroeste 4.6 -- -- 98
2020-03-16 09:00:00 4 26 Noroeste 43 Noroeste 5 -- -- 97
2020-03-16 08:00:00 4.2 30 Noroeste 41 Noroeste 1 -- -- 97
2020-03-16 07:00:00 4.7 26 Noroeste 43 Noroeste 1.8 -- -- 96
2020-03-16 06:00:00 5.4 24 Noroeste 37 Noroeste 2.8 -- -- 96
2020-03-16 05:00:00 6.5 14 Noroeste 26 Noroeste 2.2 -- -- 98
2020-03-16 04:00:00 6.7 14 Noroeste 28 Noroeste 3.2 -- -- 97
2020-03-16 03:00:00 7.2 19 Noroeste 37 Noroeste 1.8 -- -- 96
2020-03-16 02:00:00 8.3 21 Noroeste 33 Noroeste 0.4 -- -- 96
2020-03-16 01:00:00 9.1 17 Noroeste 32 Noroeste 1.4 -- -- 96
2020-03-16 00:00:00 11 17 Oeste 26 Noroeste 2.8 -- -- 94
2020-03-15 23:00:00 12 17 Sur 29 Sudeste 2.6 -- -- 95
2020-03-15 22:00:00 12.3 10 Sur 24 Sudeste 0.6 -- -- 94
2020-03-15 21:00:00 12 6 Sudeste 36 Oeste 7.2 -- -- 92
2020-03-15 20:00:00 13.4 28 Sudeste 37 Sudeste 3 -- -- 90
2020-03-15 19:00:00 14.1 26 Sudeste 39 Sudeste 1.4 -- -- 83
2020-03-15 18:00:00 15.6 15 Sudeste 41 Sudeste 0 -- -- 74
2020-03-15 17:00:00 17.6 22 Sudeste 52 Sudeste 0 -- -- 66
2020-03-15 16:00:00 17.3 38 Sudeste 53 Sudeste 0.6 -- -- 64
2020-03-15 15:00:00 17.2 16 Sudeste 39 Sudeste 0 -- -- 58
2020-03-15 14:00:00 19.5 26 Sudeste 37 Sudeste 0 -- -- 51
2020-03-15 13:00:00 17.8 27 Sudeste 41 Sudeste 0 -- -- 50
2020-03-15 12:00:00 16 21 Sudeste 35 Sudeste 0 -- -- 53
2020-03-15 11:00:00 13.4 21 Sudeste 29 Sudeste 0 -- -- 60
2020-03-15 10:00:00 8.2 5 Este 8 Este 0 -- -- 81
2020-03-15 09:00:00 4.1 0 Calma 4 Este 0 -- -- 98
2020-03-15 08:00:00 -0.9 0 Calma 2 Sur 0 -- -- 98
2020-03-15 07:00:00 -1.3 0 Calma 2 Oeste 0 -- -- 96
2020-03-15 06:00:00 -1.1 0 Calma 2 Oeste 0 -- -- 95
2020-03-15 05:00:00 -0.6 0 Calma 6 Este 0 -- -- 95
2020-03-15 04:00:00 0.1 3 Este 5 Nordeste 0 -- -- 95
2020-03-15 03:00:00 0.4 3 Sudoeste 4 Sudoeste 0 -- -- 93
2020-03-15 02:00:00 1.5 2 Sudeste 6 Sudoeste 0 -- -- 93
2020-03-15 01:00:00 1.8 5 Sudoeste 9 Sur 0 -- -- 89
2020-03-15 00:00:00 3.6 3 Oeste 6 Sudoeste 0 -- -- 87
2020-03-14 23:00:00 5.1 3 Sudoeste 8 Noroeste 0 -- -- 83
2020-03-14 22:00:00 6.4 9 Oeste 12 Noroeste 0 -- -- 78
2020-03-14 21:00:00 9.1 9 Noroeste 15 Noroeste 0 -- -- 71
2020-03-14 20:00:00 11.1 6 Norte -- -- 0 -- -- 63
2020-03-14 19:00:00 14.3 7 Nordeste 19 Norte 0 -- -- 55
2020-03-14 18:00:00 17.3 12 Norte 21 Noroeste 0 -- -- 46
2020-03-14 17:00:00 18.6 13 Noroeste 24 Noroeste 0 -- -- 35
2020-03-14 16:00:00 18.7 16 Noroeste 33 Noroeste 0 -- -- 37
2020-03-14 15:00:00 18.6 16 Noroeste 28 Norte 0 -- -- 39
2020-03-14 14:00:00 17.5 15 Noroeste 30 Noroeste 0 -- -- 40
2020-03-14 13:00:00 15.9 20 Noroeste 31 Noroeste 0 -- -- 43
2020-03-14 12:00:00 14.3 18 Norte 32 Norte 0 -- -- 45
2020-03-14 11:00:00 12.6 21 Noroeste 33 Norte 0 -- -- 50
2020-03-14 10:00:00 10.1 13 Noroeste 21 Norte 0 -- -- 66
2020-03-14 09:00:00 6.6 10 Noroeste 17 Noroeste 0 -- -- 82
2020-03-14 08:00:00 3.3 10 Noroeste 22 Noroeste 0 -- -- 92
2020-03-14 07:00:00 3.2 13 Noroeste 25 Noroeste 0 -- -- 91
2020-03-14 06:00:00 3.7 14 Noroeste 23 Noroeste 0 -- -- 90
2020-03-14 05:00:00 4.1 12 Norte 22 Noroeste 0 -- -- 89
2020-03-14 04:00:00 4.5 12 Noroeste 28 Noroeste 0 -- -- 87
2020-03-14 03:00:00 5 14 Noroeste 24 Noroeste 0 -- -- 88
2020-03-14 02:00:00 5.6 8 Noroeste 18 Noroeste 0 -- -- 86
2020-03-14 01:00:00 6.1 10 Noroeste 17 Noroeste 0 -- -- 85
2020-03-14 00:00:00 7.2 9 Noroeste 20 Noroeste 0 -- -- 80
2020-03-13 23:00:00 7.8 10 Noroeste 18 Noroeste 0 -- -- 79
2020-03-13 22:00:00 8.4 11 Noroeste 17 Noroeste 0 -- -- 78
2020-03-13 21:00:00 9.2 10 Norte 17 Norte 0 -- -- 74
2020-03-13 20:00:00 10.1 10 Norte 24 Norte 0 -- -- 71
2020-03-13 19:00:00 11.5 15 Norte 32 Norte 0 -- -- 67
2020-03-13 18:00:00 13.1 18 Norte 31 Norte 0 -- -- 62
2020-03-13 17:00:00 15.2 18 Norte 32 Noroeste 0 -- -- 55
2020-03-13 16:00:00 15.9 18 Norte 32 Norte 0 -- -- 54
2020-03-13 15:00:00 16.1 20 Norte 42 Norte 0 -- -- 53
2020-03-13 14:00:00 17.5 18 Noroeste 35 Noroeste 0 -- -- 50
2020-03-13 13:00:00 16.6 23 Noroeste 37 Noroeste 0 -- -- 55
2020-03-13 12:00:00 15.5 20 Noroeste 37 Noroeste 0 -- -- 58
2020-03-13 11:00:00 13.2 23 Noroeste 39 Noroeste 0 -- -- 63
2020-03-13 10:00:00 12.4 25 Noroeste 39 Noroeste 0 -- -- 67
2020-03-13 09:00:00 11.5 22 Noroeste 37 Noroeste 0 -- -- 71
2020-03-13 08:00:00 10.1 15 Noroeste 32 Noroeste 0 -- -- 79
2020-03-13 07:00:00 10.1 26 Noroeste 37 Noroeste 0 -- -- 75
2020-03-13 06:00:00 10.4 19 Noroeste 32 Norte 0 -- -- 78
2020-03-13 05:00:00 10.9 22 Noroeste 32 Noroeste 0 -- -- 79
2020-03-13 04:00:00 11.1 19 Noroeste 33 Noroeste 0 -- -- 81
2020-03-13 03:00:00 11.2 22 Noroeste 34 Noroeste 0 -- -- 79
2020-03-13 02:00:00 11.7 22 Noroeste 34 Noroeste 0 -- -- 79
2020-03-13 01:00:00 11.7 18 Noroeste 30 Noroeste 0 -- -- 80
2020-03-13 00:00:00 11.7 18 Noroeste 32 Noroeste 0 -- -- 80
2020-03-12 23:00:00 11.8 18 Noroeste 36 Noroeste 0 -- -- 81
2020-03-12 22:00:00 12.5 19 Noroeste 32 Noroeste 0 -- -- 76
2020-03-12 21:00:00 13 19 Noroeste 33 Noroeste 0 -- -- 76
2020-03-12 20:00:00 13.7 17 Noroeste 29 Norte 0 -- -- 75
2020-03-12 19:00:00 14.9 16 Norte 32 Norte 0 -- -- 71
2020-03-12 18:00:00 16.7 23 Norte 39 Norte 0 -- -- 66
2020-03-12 17:00:00 19.1 19 Norte 31 Norte 0 -- -- 59
2020-03-12 16:00:00 19.8 17 Noroeste 33 Noroeste 0 -- -- 54
2020-03-12 15:00:00 21.4 18 Noroeste 33 Noroeste 0 -- -- 53
2020-03-12 14:00:00 20.8 10 Noroeste 20 Noroeste 0 -- -- 52
2020-03-12 13:00:00 20.1 10 Norte 19 Noroeste 0 -- -- 55
2020-03-12 12:00:00 19.4 14 Noroeste 21 Norte 0 -- -- 56
2020-03-12 11:00:00 17.1 9 Norte 15 Noroeste 0 -- -- 64
2020-03-12 10:00:00 14.7 9 Norte 15 Norte 0 -- -- 74
2020-03-12 09:00:00 9.2 2 Nordeste 4 Noroeste 0 -- -- 98
2020-03-12 08:00:00 5.4 0 Calma 5 Oeste 0 -- -- 96
2020-03-12 07:00:00 4.9 3 Sur 6 Sudoeste 0 -- -- 96
2020-03-12 06:00:00 5.3 4 Sur 6 Sur 0 -- -- 96
2020-03-12 05:00:00 5.5 2 Sur 4 Sur 0 -- -- 95
2020-03-12 04:00:00 5.8 0 Calma 4 Oeste 0 -- -- 94
2020-03-12 03:00:00 6.6 0 Calma 6 Sudoeste 0 -- -- 93
2020-03-12 02:00:00 7 4 Sudoeste 8 Oeste 0 -- -- 89
2020-03-12 01:00:00 8.6 2 Sur 4 Oeste 0 -- -- 89
2020-03-12 00:00:00 9.4 2 Sur 5 Sudoeste 0 -- -- 87
2020-03-11 23:00:00 10.4 0 Calma 6 Este 0 -- -- 80
2020-03-11 22:00:00 11.4 3 Este 8 Sur 0 -- -- 80
2020-03-11 21:00:00 11.3 8 Sudoeste 12 Sudoeste 0 -- -- 78
2020-03-11 20:00:00 14.5 7 Sudoeste 9 Sudoeste 0 -- -- 67
2020-03-11 19:00:00 20.5 0 Calma 2 Sudoeste 0 -- -- 52
2020-03-11 18:00:00 23.4 0 Calma 8 Nordeste 0 -- -- 36
2020-03-11 17:00:00 23.6 3 Nordeste 9 Nordeste 0 -- -- 36
2020-03-11 16:00:00 23.7 3 Este 10 Noroeste 0 -- -- 37
2020-03-11 15:00:00 22.9 5 Este 10 Nordeste 0 -- -- 40
2020-03-11 14:00:00 21.8 4 Norte 13 Nordeste 0 -- -- 42
2020-03-11 13:00:00 20 4 Noroeste 10 Nordeste 0 -- -- 46
2020-03-11 12:00:00 18.3 5 Norte 18 Norte 0 -- -- 52
2020-03-11 11:00:00 15.5 9 Norte 14 Noroeste 0 -- -- 61
2020-03-11 10:00:00 12.5 6 Noroeste 13 Noroeste 0 -- -- 72
2020-03-11 09:00:00 9.3 10 Noroeste 17 Noroeste 0 -- -- 84
2020-03-11 08:00:00 5.6 9 Noroeste 16 Noroeste 0 -- -- 95
2020-03-11 07:00:00 5.4 5 Sudoeste 17 Noroeste 0 -- -- 89
2020-03-11 06:00:00 6.3 11 Noroeste 17 Noroeste 0 -- -- 91
2020-03-11 05:00:00 6 5 Oeste 15 Noroeste 0 -- -- 88
2020-03-11 04:00:00 6.1 8 Noroeste 10 Noroeste 0 -- -- 89
2020-03-11 03:00:00 5.9 4 Oeste 12 Oeste 0 -- -- 82
2020-03-11 02:00:00 7.5 3 Norte 18 Noroeste 0 -- -- 77
2020-03-11 01:00:00 8.5 12 Noroeste 19 Oeste 0 -- -- 75
2020-03-11 00:00:00 9.3 9 Noroeste 17 Noroeste 0 -- -- 70
2020-03-10 23:00:00 8.9 11 Noroeste 15 Noroeste 0 -- -- 71
2020-03-10 22:00:00 10.1 3 Oeste 10 Noroeste 0 -- -- 62
2020-03-10 21:00:00 12.2 8 Noroeste 13 Noroeste 0 -- -- 55
2020-03-10 20:00:00 13.2 6 Noroeste 10 Noroeste 0 -- -- 59
2020-03-10 19:00:00 17.8 4 Norte 10 Nordeste 0 -- -- 44
2020-03-10 18:00:00 19.2 6 Nordeste 16 Nordeste 0 -- -- 41
2020-03-10 17:00:00 20.6 9 Nordeste 18 Nordeste 0 -- -- 41
2020-03-10 16:00:00 20.9 9 Nordeste 18 Nordeste 0 -- -- 44
2020-03-10 15:00:00 21 9 Norte 21 Norte 0 -- -- 42
2020-03-10 14:00:00 19.3 9 Noroeste 17 Noroeste 0 -- -- 44
2020-03-10 13:00:00 17.3 9 Noroeste 19 Oeste 0 -- -- 49
2020-03-10 12:00:00 15.5 11 Noroeste 20 Noroeste 0 -- -- 54
2020-03-10 11:00:00 12.3 12 Norte 19 Norte 0 -- -- 62
2020-03-10 10:00:00 10.1 9 Norte 15 Norte 0 -- -- 71
2020-03-10 09:00:00 7.2 6 Noroeste 9 Noroeste 0 -- -- 92
2020-03-10 08:00:00 4.4 3 Sudoeste 10 Noroeste 0 -- -- 96
2020-03-10 07:00:00 3.9 8 Noroeste 10 Noroeste 0 -- -- 98
2020-03-10 06:00:00 2.8 6 Oeste 9 Oeste 0 -- -- 96
2020-03-10 05:00:00 2.2 5 Sudoeste 6 Sudoeste 0 -- -- 94
2020-03-10 04:00:00 2.9 4 Oeste 7 Oeste 0 -- -- 92
2020-03-10 03:00:00 4.2 4 Oeste 12 Noroeste 0 -- -- 92
2020-03-10 02:00:00 4 4 Oeste 10 Noroeste 0 -- -- 85
2020-03-10 01:00:00 6.3 7 Noroeste 17 Norte 0 -- -- 82
2020-03-10 00:00:00 6.8 6 Noroeste 19 Noroeste 0 -- -- 79
2020-03-09 23:00:00 8.4 15 Noroeste 27 Noroeste 0 -- -- 73
2020-03-09 22:00:00 7.7 8 Oeste 17 Oeste 0 -- -- 76
2020-03-09 21:00:00 9.2 11 Noroeste 31 Norte 0 -- -- 72
2020-03-09 20:00:00 9.8 17 Norte 33 Norte 0 -- -- 68
2020-03-09 19:00:00 10.9 23 Norte 46 Norte 0 -- -- 63
2020-03-09 18:00:00 12.3 23 Norte 43 Norte 0 -- -- 61
2020-03-09 17:00:00 13.5 24 Norte 49 Norte 0 -- -- 54
2020-03-09 16:00:00 14 36 Noroeste 56 Norte 0 -- -- 53
2020-03-09 15:00:00 14.6 36 Norte 55 Noroeste 0 -- -- 51
2020-03-09 14:00:00 14.8 32 Noroeste 51 Noroeste 0 -- -- 52
2020-03-09 13:00:00 13.9 35 Noroeste 51 Norte 0 -- -- 55
2020-03-09 12:00:00 13.6 32 Noroeste 48 Noroeste 0 -- -- 54
2020-03-09 11:00:00 12.2 29 Noroeste 45 Norte 0.2 -- -- 61
2020-03-09 10:00:00 10.7 17 Noroeste 30 Noroeste 0 -- -- 69
2020-03-09 09:00:00 9.7 15 Noroeste 23 Noroeste 0 -- -- 75
2020-03-09 08:00:00 8.4 12 Noroeste 27 Noroeste 0 -- -- 77
2020-03-09 07:00:00 7.8 15 Noroeste 23 Noroeste 0 -- -- 81
2020-03-09 06:00:00 8.4 12 Noroeste 23 Noroeste 0 -- -- 76
2020-03-09 05:00:00 9.2 11 Noroeste 21 Noroeste 0 -- -- 76
2020-03-09 04:00:00 9.5 12 Norte 21 Noroeste 0 -- -- 80
2020-03-09 03:00:00 9.3 5 Oeste 15 Oeste 0 -- -- 88
2020-03-09 02:00:00 9.4 6 Oeste 13 Noroeste 0 -- -- 89
2020-03-09 01:00:00 10 7 Oeste 27 Norte 0 -- -- 86
2020-03-09 00:00:00 10.7 18 Norte 26 Norte 0 -- -- 76
2020-03-08 23:00:00 11.1 14 Norte 24 Norte 0 -- -- 76
2020-03-08 22:00:00 11.2 11 Norte 23 Norte 0 -- -- 76
2020-03-08 21:00:00 13.1 11 Noroeste 22 Noroeste 0 -- -- 69
2020-03-08 20:00:00 12.9 11 Noroeste 21 Noroeste 0 -- -- 67
2020-03-08 19:00:00 14.7 10 Norte 17 Noroeste 0 -- -- 58
2020-03-08 18:00:00 16.6 10 Noroeste 21 Norte 0 -- -- 50
2020-03-08 17:00:00 17.4 15 Norte 25 Norte 0 -- -- 49
2020-03-08 16:00:00 17.2 11 Noroeste 20 Norte 0 -- -- 49
2020-03-08 15:00:00 16.9 7 Norte 13 Norte 0 -- -- 49
2020-03-08 14:00:00 16 5 Noroeste 13 Noroeste 0 -- -- 51
2020-03-08 13:00:00 13.9 4 Oeste 14 Norte 0 -- -- 61
2020-03-08 12:00:00 11.9 4 Norte 11 Nordeste 0 -- -- 64
2020-03-08 11:00:00 9.2 3 Norte 10 Norte 0 -- -- 80
2020-03-08 10:00:00 6.9 4 Norte 6 Nordeste 0 -- -- 91
2020-03-08 09:00:00 2.2 0 Calma 4 Sudoeste 0 -- -- 100
2020-03-08 08:00:00 -2.1 0 Calma 4 Sudoeste 0 -- -- 98
2020-03-08 07:00:00 -2.1 4 Sudoeste 6 Sur 0 -- -- 98
2020-03-08 06:00:00 -1.5 0 Calma 8 Sudoeste 0 -- -- 98
2020-03-08 05:00:00 -1.2 5 Sudoeste 8 Sudoeste 0 -- -- 97
2020-03-08 04:00:00 -0.4 3 Sudoeste 7 Oeste 0 -- -- 97
2020-03-08 03:00:00 -0.2 5 Oeste 9 Sudoeste 0 -- -- 95
2020-03-08 02:00:00 1.5 6 Oeste 10 Noroeste 0 -- -- 95
2020-03-08 01:00:00 1.3 0 Calma 6 Sur 0 -- -- 95
2020-03-08 00:00:00 2.3 4 Sudoeste 8 Sudoeste 0 -- -- 92
2020-03-07 23:00:00 3.5 3 Sudoeste 10 Noroeste 0 -- -- 89
2020-03-07 22:00:00 5.9 6 Norte 11 Noroeste 0 -- -- 89
2020-03-07 21:00:00 7.5 3 Norte 17 Noroeste 0 -- -- 84
2020-03-07 20:00:00 9.3 7 Noroeste 19 Norte 0 -- -- 77
2020-03-07 19:00:00 10.7 12 Noroeste 36 Noroeste 0 -- -- 73
2020-03-07 18:00:00 12.1 24 Noroeste 37 Noroeste 0 -- -- 65
2020-03-07 17:00:00 12.4 26 Noroeste 41 Noroeste 0 -- -- 68
2020-03-07 16:00:00 12.9 28 Noroeste 48 Noroeste 0 -- -- 68
2020-03-07 15:00:00 13.4 25 Noroeste 43 Noroeste 0 -- -- 65
2020-03-07 14:00:00 11.8 24 Noroeste 42 Noroeste 0 -- -- 76
2020-03-07 13:00:00 11.6 20 Noroeste 46 Noroeste 0 -- -- 81
2020-03-07 12:00:00 13.5 32 Noroeste 52 Noroeste 0 -- -- 69
2020-03-07 11:00:00 12.4 32 Noroeste 46 Noroeste 0.2 -- -- 70
2020-03-07 10:00:00 10.4 30 Noroeste 49 Noroeste 0 -- -- 77
2020-03-07 09:00:00 8.3 14 Noroeste 25 Noroeste 0 -- -- 86
2020-03-07 08:00:00 7.1 16 Noroeste 37 Noroeste 0 -- -- 88
2020-03-07 07:00:00 6.8 20 Noroeste 32 Noroeste 0 -- -- 87
2020-03-07 06:00:00 6.3 18 Noroeste 29 Noroeste 0 -- -- 87
2020-03-07 05:00:00 4.8 5 Noroeste 23 Noroeste 0 -- -- 85
2020-03-07 04:00:00 5.3 13 Noroeste 39 Noroeste 0 -- -- 86
2020-03-07 03:00:00 5.8 23 Noroeste 39 Noroeste 0 -- -- 85
2020-03-07 02:00:00 5.3 24 Noroeste 37 Noroeste 0 -- -- 89
2020-03-07 01:00:00 5.7 20 Noroeste 33 Noroeste 0 -- -- 88
2020-03-07 00:00:00 5.3 21 Noroeste 41 Noroeste 0 -- -- 84
2020-03-06 23:00:00 5.4 23 Noroeste 38 Noroeste 0 -- -- 83
2020-03-06 22:00:00 5.2 23 Noroeste 56 Noroeste 0.6 -- -- 87
2020-03-06 21:00:00 6 34 Noroeste 51 Noroeste 0 -- -- 82
2020-03-06 20:00:00 6.1 33 Noroeste 54 Noroeste 0 -- -- 80
2020-03-06 19:00:00 6.6 28 Noroeste 54 Noroeste 0 -- -- 76
2020-03-06 18:00:00 7 27 Noroeste 45 Noroeste 0 -- -- 82
2020-03-06 17:00:00 6.4 36 Noroeste 68 Noroeste 0.4 -- -- 87
2020-03-06 16:00:00 8.3 35 Noroeste 63 Oeste 0 -- -- 71
2020-03-06 15:00:00 8.1 26 Noroeste 77 Noroeste 0.4 -- -- 86
2020-03-06 14:00:00 9.5 24 Noroeste 56 Noroeste 0 -- -- 73
2020-03-06 13:00:00 6.7 23 Norte 60 Noroeste 0.4 -- -- 83
2020-03-06 12:00:00 9.6 45 Noroeste 69 Noroeste 0 -- -- 66
2020-03-06 11:00:00 8.6 31 Noroeste 57 Noroeste 0 -- -- 80
2020-03-06 10:00:00 7.4 22 Noroeste 39 Noroeste 0 -- -- 84
2020-03-06 09:00:00 4.8 23 Oeste 64 Oeste 2 -- -- 94
2020-03-06 08:00:00 4.9 27 Noroeste 57 Oeste 1.4 -- -- 95
2020-03-06 07:00:00 2.7 3 Sudeste 9 Sur 0 -- -- 97
2020-03-06 06:00:00 2.4 4 Sur 10 Sur 0 -- -- 97
2020-03-06 05:00:00 2.1 3 Nordeste 8 Nordeste 0 -- -- 97
2020-03-06 04:00:00 0.8 3 Noroeste 8 Sudoeste 0 -- -- 96
2020-03-06 03:00:00 0.9 5 Sudoeste 8 Sur 0 -- -- 93
2020-03-06 02:00:00 2.2 4 Sudoeste 8 Sudeste 0 -- -- 88
2020-03-06 01:00:00 3.1 5 Este 8 Este 0 -- -- 89
2020-03-06 00:00:00 4.1 0 Calma 8 Norte 0 -- -- 83
2020-03-05 23:00:00 5.2 4 Este 7 Este 0 -- -- 80
2020-03-05 22:00:00 6 5 Oeste 13 Noroeste 0 -- -- 76
2020-03-05 21:00:00 8 9 Noroeste 27 Norte 0 -- -- 70
2020-03-05 20:00:00 10.1 15 Norte 41 Noroeste 0 -- -- 63
2020-03-05 19:00:00 11.4 21 Norte 34 Norte 0 -- -- 59
2020-03-05 18:00:00 12.5 22 Norte 37 Noroeste 0 -- -- 60
2020-03-05 17:00:00 12.9 19 Norte 49 Noroeste 0 -- -- 66
2020-03-05 16:00:00 16 34 Noroeste 75 Noroeste 0 -- -- 52
2020-03-05 15:00:00 17.6 37 Noroeste 55 Noroeste 0 -- -- 37
2020-03-05 14:00:00 18.1 37 Oeste 56 Oeste 0 -- -- 41
2020-03-05 13:00:00 13.2 5 Nordeste 48 Noroeste 0.2 -- -- 87
2020-03-05 12:00:00 13.8 39 Oeste 65 Oeste 1 -- -- 82
2020-03-05 11:00:00 16.9 28 Sudoeste 58 Sudoeste 0 -- -- 63
2020-03-05 10:00:00 16.4 38 Sudoeste 60 Oeste 0 -- -- 59
2020-03-05 09:00:00 15.8 31 Sudoeste 53 Sudoeste 0 -- -- 62
2020-03-05 08:00:00 14.5 22 Sur 41 Sudoeste 0 -- -- 71
2020-03-05 07:00:00 13.7 20 Sudoeste 30 Sudoeste 0 -- -- 74
2020-03-05 06:00:00 14.5 18 Sur 42 Sudoeste 0 -- -- 70
2020-03-05 05:00:00 11.4 22 Sudoeste 40 Sudoeste 0 -- -- 92
2020-03-05 04:00:00 8.5 4 Nordeste 8 Nordeste 0 -- -- 95
2020-03-05 03:00:00 8 5 Sudoeste 9 Sudoeste 0 -- -- 92
2020-03-05 02:00:00 7.9 4 Sudeste 9 Sudeste 0 -- -- 88
2020-03-05 01:00:00 9.5 0 Calma 7 Sudoeste 0 -- -- 83
2020-03-05 00:00:00 10.9 4 Sudoeste 17 Sudoeste 0 -- -- 79
2020-03-04 23:00:00 12.1 8 Sudoeste 15 Sur 0 -- -- 76
2020-03-04 22:00:00 13.7 12 Sur 17 Sur 0 -- -- 69
2020-03-04 21:00:00 14.6 8 Sudoeste 13 Norte 0 -- -- 68
2020-03-04 20:00:00 17.1 6 Norte 10 Norte 0 -- -- 60
2020-03-04 19:00:00 17.8 4 Norte 13 Nordeste 0 -- -- 61
2020-03-04 18:00:00 19 6 Norte 26 Norte 0 -- -- 56
2020-03-04 17:00:00 20.6 14 Norte 28 Noroeste 0 -- -- 47
2020-03-04 16:00:00 20.8 17 Noroeste 28 Noroeste 0 -- -- 48
2020-03-04 15:00:00 20.1 18 Noroeste 34 Noroeste 0 -- -- 52
2020-03-04 14:00:00 20.4 19 Noroeste 31 Noroeste 0 -- -- 53
2020-03-04 13:00:00 17.4 5 Noroeste 12 Noroeste 0 -- -- 66
2020-03-04 12:00:00 13.6 5 Este 10 Este 0 -- -- 74
2020-03-04 11:00:00 12.7 3 Nordeste 6 Este 0 -- -- 75
2020-03-04 10:00:00 10.1 6 Nordeste 10 Este 0 -- -- 86
2020-03-04 09:00:00 8.1 0 Calma 3 Norte 0 -- -- 98
2020-03-04 08:00:00 7.4 0 Calma 4 Nordeste 0 -- -- 97
2020-03-04 07:00:00 6.5 0 Calma 3 Sudeste 0 -- -- 97
2020-03-04 06:00:00 6.5 4 Sudeste 5 Sudeste 0 -- -- 96
2020-03-04 05:00:00 6.5 5 Oeste 7 Oeste 0 -- -- 95
2020-03-04 04:00:00 6.8 4 Sur 6 Sur 0 -- -- 95
2020-03-04 03:00:00 6.4 0 Calma 10 Sur 0 -- -- 94
2020-03-04 02:00:00 6.8 3 Este 8 Sudeste 0 -- -- 90
2020-03-04 01:00:00 7.3 7 Noroeste 10 Noroeste 0 -- -- 90
2020-03-04 00:00:00 7.6 3 Sudoeste 8 Sur 0 -- -- 84
2020-03-03 23:00:00 9.7 4 Norte 21 Norte 0 -- -- 77
2020-03-03 22:00:00 10.9 12 Noroeste 28 Norte 0 -- -- 74
2020-03-03 21:00:00 11.5 15 Noroeste 28 Norte 0 -- -- 70
2020-03-03 20:00:00 12.5 20 Noroeste 47 Norte 0 -- -- 64
2020-03-03 19:00:00 14 29 Noroeste 60 Noroeste 0 -- -- 57
2020-03-03 18:00:00 15.7 38 Noroeste 68 Norte 0 -- -- 54
2020-03-03 17:00:00 17.2 30 Noroeste 63 Noroeste 0 -- -- 52
2020-03-03 16:00:00 19.7 47 Noroeste 68 Noroeste 0 -- -- 43
2020-03-03 15:00:00 16.2 12 Sudoeste 20 Sudeste 0 -- -- 65
2020-03-03 14:00:00 13.7 6 Sur 19 Nordeste 0 -- -- 63
2020-03-03 13:00:00 12.3 8 Nordeste 17 Este 0 -- -- 69
2020-03-03 12:00:00 10.5 4 Nordeste 15 Nordeste 0 -- -- 77
2020-03-03 11:00:00 8.3 12 Nordeste 21 Este 0 -- -- 90
2020-03-03 10:00:00 5.8 13 Este 23 Este 0 -- -- 96
2020-03-03 09:00:00 4.3 11 Sudeste 17 Este 1 -- -- 97
2020-03-03 08:00:00 3.5 3 Sur 7 Sur 1.4 -- -- 96
2020-03-03 07:00:00 3 4 Sur 13 Oeste 0.2 -- -- 94
2020-03-03 06:00:00 2.4 4 Norte 8 Norte 0 -- -- 94
2020-03-03 05:00:00 1 0 Calma 8 Sur 0 -- -- 94
2020-03-03 04:00:00 0.2 4 Sur 9 Sur 0 -- -- 94
2020-03-03 03:00:00 -0.5 6 Sudoeste 11 Sur 0 -- -- 89
2020-03-03 02:00:00 1.4 6 Oeste 13 Noroeste 0 -- -- 84
2020-03-03 01:00:00 2.1 8 Noroeste 14 Oeste 0 -- -- 84
2020-03-03 00:00:00 1.5 6 Oeste 10 Norte 0 -- -- 83
2020-03-02 23:00:00 2.1 5 Noroeste 9 Oeste 0 -- -- 86
2020-03-02 22:00:00 3.2 7 Oeste 14 Norte 0 -- -- 80
2020-03-02 21:00:00 4.5 5 Noroeste 13 Noroeste 0 -- -- 76
2020-03-02 20:00:00 6 10 Noroeste 31 Noroeste 0 -- -- 70
2020-03-02 19:00:00 7.8 22 Noroeste 46 Noroeste 0 -- -- 58
2020-03-02 18:00:00 9.5 27 Noroeste 61 Noroeste 0 -- -- 56
2020-03-02 17:00:00 11.6 41 Noroeste 59 Noroeste 0 -- -- 42
2020-03-02 16:00:00 10.4 21 Norte 43 Noroeste 0 -- -- 54
2020-03-02 15:00:00 11.1 32 Noroeste 59 Noroeste 0 -- -- 49
2020-03-02 14:00:00 12.9 27 Noroeste 53 Noroeste 0 -- -- 51
2020-03-02 13:00:00 12 39 Noroeste 62 Noroeste 0 -- -- 53
2020-03-02 12:00:00 10.5 37 Noroeste 60 Noroeste 0 -- -- 59
2020-03-02 11:00:00 10.9 40 Noroeste 64 Noroeste 0 -- -- 63
2020-03-02 10:00:00 10 25 Noroeste 49 Noroeste 0.2 -- -- 78
2020-03-02 09:00:00 7.7 35 Noroeste 65 Oeste 0.8 -- -- 88
2020-03-02 08:00:00 8.3 25 Oeste 37 Oeste 0.4 -- -- 90
2020-03-02 07:00:00 8.4 19 Noroeste 57 Noroeste 0.2 -- -- 89
2020-03-02 06:00:00 9.6 50 Noroeste 85 Noroeste 2.8 -- -- 87
2020-03-02 05:00:00 15.8 47 Oeste 73 Sudoeste 0 -- -- 58
2020-03-02 04:00:00 15.5 39 Sudoeste 69 Oeste 0.2 -- -- 61
2020-03-02 03:00:00 13.6 19 Sudoeste 42 Sudoeste 0 -- -- 72
2020-03-02 02:00:00 13.4 18 Sur 31 Sudoeste 0 -- -- 77
2020-03-02 01:00:00 12.6 15 Sudeste 21 Sudeste 0 -- -- 83
2020-03-02 00:00:00 13.1 8 Sur 21 Sudoeste 0 -- -- 69